Time;durP1;ratioP1;P1;durP2;ratioP2;P2;SDS_P1;SDS_P2;PMS_P1;PMS_P2;Temp;Humidity;BMP_temperature;BMP_pressure;BME280_temperature;BME280_humidity;BME280_pressure;Samples;Min_cycle;Max_cycle;Signal;HPM_P1;HPM_P2
2024/03/02 00:00:21;;;;;;;40.03;12.05;;;;;;;6.86;97.46;96998.78;5136535;23;20185;-89
2024/03/02 00:02:25;;;;;;;33.58;12.18;;;;;;;6.86;97.76;97003.13;5138719;23;20259;-89
2024/03/02 00:04:28;;;;;;;24.05;12.10;;;;;;;6.85;97.69;97004.88;5138884;23;20655;-88
2024/03/02 00:06:31;;;;;;;22.90;10.20;;;;;;;6.85;96.86;97004.06;5162847;23;20199;-90
2024/03/02 00:08:35;;;;;;;21.38;11.63;;;;;;;6.83;96.82;97001.56;5138488;23;20181;-89
2024/03/02 00:10:39;;;;;;;18.90;10.63;;;;;;;6.84;97.34;97002.41;5162597;23;20179;-89
2024/03/02 00:12:43;;;;;;;37.35;13.00;;;;;;;6.83;97.68;97001.56;5163075;23;20189;-89
2024/03/02 00:14:47;;;;;;;27.55;12.13;;;;;;;6.83;97.36;97003.34;5138355;23;20614;-90
2024/03/02 00:16:53;;;;;;;44.40;13.10;;;;;;;6.78;96.90;97001.09;5138307;23;20179;-88
2024/03/02 00:18:56;;;;;;;21.75;12.35;;;;;;;6.77;96.67;96993.44;5163011;23;20184;-90
2024/03/02 00:20:59;;;;;;;25.50;13.00;;;;;;;6.74;97.05;97004.00;5138877;23;20205;-89
2024/03/02 00:23:05;;;;;;;18.95;12.70;;;;;;;6.73;96.94;96999.75;5137456;23;20223;-90
2024/03/02 00:25:10;;;;;;;20.52;12.00;;;;;;;6.71;96.21;96999.84;5138128;23;20245;-89
2024/03/02 00:27:15;;;;;;;22.27;13.38;;;;;;;6.65;96.24;96997.69;5138515;23;20168;-89
2024/03/02 00:29:19;;;;;;;29.60;12.52;;;;;;;6.60;95.70;96998.97;5164928;22;20200;-89
2024/03/02 00:31:22;;;;;;;25.17;12.50;;;;;;;6.56;95.70;96994.13;5137887;23;20185;-89
2024/03/02 00:33:30;;;;;;;16.75;13.07;;;;;;;6.57;95.81;96996.59;5162165;23;20222;-90
2024/03/02 00:35:34;;;;;;;14.90;11.02;;;;;;;6.57;95.94;96999.19;5162804;23;20200;-88
2024/03/02 00:37:38;;;;;;;18.27;11.75;;;;;;;6.57;96.88;96997.41;5188411;22;20265;-89
2024/03/02 00:39:41;;;;;;;18.75;12.65;;;;;;;6.60;96.13;97004.16;5137005;23;20185;-88
2024/03/02 00:41:44;;;;;;;17.67;12.05;;;;;;;6.59;96.15;97015.44;5161248;23;20621;-89
2024/03/02 00:43:57;;;;;;;18.83;12.57;;;;;;;6.59;96.19;97016.25;5138385;23;20523;-89
2024/03/02 00:46:00;;;;;;;16.40;12.32;;;;;;;6.62;96.97;97017.81;5161177;23;20682;-89
2024/03/02 00:48:05;;;;;;;16.80;11.30;;;;;;;6.64;96.26;97024.53;5161814;23;20202;-88
2024/03/02 00:50:11;;;;;;;19.27;13.02;;;;;;;6.67;96.77;97015.72;5137801;23;20177;-85
2024/03/02 00:52:25;;;;;;;19.52;12.68;;;;;;;6.69;96.85;97017.28;5137025;23;20208;-85
2024/03/02 00:54:29;;;;;;;22.52;13.13;;;;;;;6.67;97.00;97013.94;5165304;22;20247;-85
2024/03/02 00:56:32;;;;;;;27.73;11.95;;;;;;;6.65;97.12;97021.00;5137839;23;20205;-84
2024/03/02 00:58:36;;;;;;;23.30;12.52;;;;;;;6.62;96.54;97008.28;5162878;23;20178;-84
2024/03/02 01:00:39;;;;;;;24.45;12.40;;;;;;;6.59;97.04;97005.06;5162782;23;20230;-84
2024/03/02 01:02:44;;;;;;;23.45;11.57;;;;;;;6.58;97.02;97008.59;5162817;23;20177;-84
2024/03/02 01:04:47;;;;;;;23.17;12.27;;;;;;;6.54;97.31;97002.00;5136983;23;20177;-84
2024/03/02 01:06:52;;;;;;;33.70;13.23;;;;;;;6.53;97.04;97004.69;5161863;23;20251;-85
2024/03/02 01:08:56;;;;;;;22.75;11.65;;;;;;;6.54;97.61;97009.75;5163042;23;20209;-86
2024/03/02 01:10:58;;;;;;;23.90;11.73;;;;;;;6.57;98.23;97012.94;5136214;23;20187;-84
2024/03/02 01:13:02;;;;;;;17.67;11.50;;;;;;;6.59;97.76;97012.84;5163304;23;20182;-85
2024/03/02 01:15:07;;;;;;;21.30;12.18;;;;;;;6.58;97.63;97009.44;5162317;23;20184;-85
2024/03/02 01:17:11;;;;;;;21.20;13.18;;;;;;;6.60;98.52;97001.56;5137332;23;20184;-84
2024/03/02 01:19:15;;;;;;;14.48;10.82;;;;;;;6.61;98.33;97014.41;5136233;23;20176;-85
2024/03/02 01:21:18;;;;;;;14.00;9.90;;;;;;;6.63;97.67;97003.91;5137890;23;20687;-84
2024/03/02 01:23:24;;;;;;;17.50;12.20;;;;;;;6.64;97.58;97008.16;5164318;22;20644;-85
2024/03/02 01:25:27;;;;;;;18.48;12.35;;;;;;;6.66;97.60;97006.28;5161735;23;20177;-84
2024/03/02 01:27:30;;;;;;;18.05;12.43;;;;;;;6.68;97.47;97001.84;5136376;23;20180;-84
2024/03/02 01:29:33;;;;;;;19.40;12.75;;;;;;;6.63;97.08;97001.31;5160663;23;20227;-84
2024/03/02 01:31:36;;;;;;;14.05;11.05;;;;;;;6.59;96.95;97005.91;5161690;23;20175;-84
2024/03/02 01:33:40;;;;;;;18.92;11.88;;;;;;;6.60;97.91;97009.34;5161999;23;20236;-85
2024/03/02 01:35:42;;;;;;;19.80;11.50;;;;;;;6.58;97.32;97012.03;5136259;23;20185;-84
2024/03/02 01:37:45;;;;;;;15.93;11.10;;;;;;;6.55;97.33;97013.97;5136268;23;20205;-84
2024/03/02 01:39:50;;;;;;;18.67;12.70;;;;;;;6.54;97.43;97007.16;5137972;23;20281;-84
2024/03/02 01:41:54;;;;;;;19.30;12.27;;;;;;;6.54;96.86;97006.31;5163331;23;20214;-85
2024/03/02 01:43:58;;;;;;;19.83;11.98;;;;;;;6.53;97.08;97015.03;5137283;23;20911;-84
2024/03/02 01:46:02;;;;;;;20.10;12.65;;;;;;;6.54;97.06;97016.69;5161456;23;20175;-84
2024/03/02 01:48:06;;;;;;;23.83;14.30;;;;;;;6.52;97.40;97014.19;5135281;23;20183;-85
2024/03/02 01:50:11;;;;;;;21.13;13.60;;;;;;;6.50;96.86;97016.06;5136471;23;20176;-85
2024/03/02 01:52:14;;;;;;;24.98;13.32;;;;;;;6.50;97.11;97010.91;5161193;23;20169;-85
2024/03/02 01:54:17;;;;;;;30.23;15.25;;;;;;;6.50;97.50;97007.50;5162560;23;20846;-84
2024/03/02 01:56:22;;;;;;;23.63;14.20;;;;;;;6.52;97.30;97013.38;5136692;23;20198;-85
2024/03/02 01:58:26;;;;;;;36.17;17.20;;;;;;;6.52;97.81;97011.59;5162872;23;20478;-88
2024/03/02 02:00:30;;;;;;;31.20;17.23;;;;;;;6.52;98.11;97001.25;5135355;23;20192;-89
2024/03/02 02:02:32;;;;;;;32.95;16.30;;;;;;;6.56;98.05;97009.66;5162341;23;20173;-89
2024/03/02 02:04:36;;;;;;;30.00;17.73;;;;;;;6.56;97.64;97007.06;5137556;23;20739;-90
2024/03/02 02:06:39;;;;;;;36.55;17.58;;;;;;;6.57;97.68;97007.78;5160436;23;20195;-88
2024/03/02 02:08:42;;;;;;;34.40;17.20;;;;;;;6.56;97.49;97006.09;5135936;23;20271;-89
2024/03/02 02:10:45;;;;;;;32.65;16.48;;;;;;;6.57;97.20;97004.38;5163084;23;20197;-89
2024/03/02 02:12:50;;;;;;;35.00;17.48;;;;;;;6.55;97.27;96993.25;5161945;23;20266;-88
2024/03/02 02:14:53;;;;;;;30.42;17.63;;;;;;;6.55;96.88;96995.84;5161882;23;20202;-87
2024/03/02 02:16:57;;;;;;;36.55;16.88;;;;;;;6.56;97.14;96993.16;5162183;23;20856;-88
2024/03/02 02:19:00;;;;;;;27.20;15.77;;;;;;;6.54;97.05;96989.03;5163205;23;20207;-89
2024/03/02 02:21:04;;;;;;;25.70;16.05;;;;;;;6.55;97.81;96988.09;5164075;23;20333;-88
2024/03/02 02:23:09;;;;;;;37.13;15.93;;;;;;;6.54;97.10;96985.59;5161344;23;20230;-87
2024/03/02 02:25:13;;;;;;;41.90;16.90;;;;;;;6.53;97.14;96989.97;5135485;23;20197;-88
2024/03/02 02:27:16;;;;;;;54.85;16.23;;;;;;;6.49;97.05;96985.91;5136140;23;20627;-88
2024/03/02 02:29:20;;;;;;;24.88;15.35;;;;;;;6.46;96.65;96985.31;5162553;23;20185;-88
2024/03/02 02:31:23;;;;;;;24.30;14.05;;;;;;;6.43;96.44;96988.94;5162894;22;20230;-88
2024/03/02 02:33:26;;;;;;;37.50;16.05;;;;;;;6.42;96.79;96976.94;5162692;23;20177;-88
2024/03/02 02:35:30;;;;;;;27.95;14.18;;;;;;;6.44;96.49;96977.66;5160606;23;20204;-88
2024/03/02 02:37:32;;;;;;;20.98;13.05;;;;;;;6.41;96.60;96977.06;5161972;23;20183;-88
2024/03/02 02:39:36;;;;;;;23.17;14.85;;;;;;;6.39;96.14;96971.13;5160494;23;20552;-89
2024/03/02 02:41:38;;;;;;;19.90;13.23;;;;;;;6.33;96.60;96969.81;5162484;23;21067;-88
2024/03/02 02:43:42;;;;;;;24.52;14.77;;;;;;;6.30;96.16;96966.59;5136495;23;20519;-88
2024/03/02 02:45:45;;;;;;;23.40;14.63;;;;;;;6.25;96.29;96959.16;5136613;23;20182;-89
2024/03/02 02:47:48;;;;;;;19.38;13.20;;;;;;;6.26;96.40;96965.19;5161947;22;20184;-88
2024/03/02 02:49:51;;;;;;;24.20;13.63;;;;;;;6.27;97.12;96967.66;5136914;23;20655;-88
2024/03/02 02:51:54;;;;;;;40.88;12.70;;;;;;;6.28;97.45;96961.53;5137480;23;20638;-89
2024/03/02 02:53:57;;;;;;;21.77;14.07;;;;;;;6.28;96.87;96958.13;5161198;23;20668;-88
2024/03/02 02:56:02;;;;;;;22.77;13.50;;;;;;;6.25;96.37;96953.97;5161296;23;20282;-89
2024/03/02 02:58:05;;;;;;;22.77;14.10;;;;;;;6.25;97.04;96953.97;5162298;23;20170;-87
2024/03/02 03:00:13;;;;;;;19.35;12.95;;;;;;;6.27;96.66;96965.06;5163450;22;20178;-88
2024/03/02 03:02:17;;;;;;;17.63;11.55;;;;;;;6.20;97.08;96958.66;5164174;22;20177;-88
2024/03/02 03:04:20;;;;;;;15.90;10.65;;;;;;;6.18;97.30;96959.72;5136510;23;20258;-89
2024/03/02 03:06:23;;;;;;;16.40;11.27;;;;;;;6.14;97.48;96959.06;5161229;23;20203;-88
2024/03/02 03:08:25;;;;;;;19.63;12.00;;;;;;;6.14;97.01;96953.91;5162281;22;20212;-88
2024/03/02 03:10:29;;;;;;;20.45;12.85;;;;;;;6.12;96.60;96950.59;5162537;23;20176;-89
2024/03/02 03:12:34;;;;;;;19.23;12.10;;;;;;;6.12;96.44;96953.19;5162504;23;20183;-88
2024/03/02 03:14:37;;;;;;;14.07;11.07;;;;;;;6.10;96.88;96954.22;5161056;23;20201;-89
2024/03/02 03:16:40;;;;;;;15.13;10.52;;;;;;;6.12;97.19;96960.13;5161022;23;20303;-89
2024/03/02 03:18:42;;;;;;;22.90;11.73;;;;;;;6.11;96.94;96956.69;5137226;23;20511;-89
2024/03/02 03:20:45;;;;;;;19.40;11.10;;;;;;;6.10;97.09;96949.88;5163647;22;20177;-89
2024/03/02 03:22:49;;;;;;;19.38;11.73;;;;;;;6.09;96.68;96958.56;5163440;22;20174;-89
2024/03/02 03:24:52;;;;;;;37.05;11.90;;;;;;;6.08;96.80;96951.72;5163698;22;20169;-90
2024/03/02 03:26:57;;;;;;;18.17;11.20;;;;;;;6.07;97.44;96958.78;5161548;23;20180;-89
2024/03/02 03:29:02;;;;;;;17.30;10.75;;;;;;;6.07;96.83;96964.78;5161237;23;20231;-90
2024/03/02 03:31:06;;;;;;;21.23;10.70;;;;;;;6.06;97.20;96957.97;5136158;23;20181;-90
2024/03/02 03:33:11;;;;;;;22.23;10.85;;;;;;;6.04;96.67;96974.50;5159698;23;20289;-89
2024/03/02 03:35:15;;;;;;;27.15;10.75;;;;;;;6.00;96.59;96973.06;5160611;23;20225;-89
2024/03/02 03:37:18;;;;;;;30.10;11.23;;;;;;;6.01;96.35;96969.56;5161857;23;20237;-89
2024/03/02 03:39:21;;;;;;;23.60;11.27;;;;;;;5.98;96.59;96975.75;5160881;23;20189;-88
2024/03/02 03:41:24;;;;;;;22.92;12.55;;;;;;;5.96;96.61;96975.03;5160647;23;20177;-90
2024/03/02 03:43:27;;;;;;;25.55;11.73;;;;;;;5.94;96.40;96973.47;5162458;22;20618;-89
2024/03/02 03:45:32;;;;;;;22.45;11.95;;;;;;;5.93;96.62;96972.66;5135082;23;20172;-88
2024/03/02 03:47:35;;;;;;;27.80;11.85;;;;;;;5.93;97.15;96977.84;5137023;23;20189;-88
2024/03/02 03:49:39;;;;;;;29.63;11.88;;;;;;;5.94;97.09;96973.47;5161031;23;20231;-88
2024/03/02 03:51:42;;;;;;;26.17;11.82;;;;;;;5.94;97.27;96979.50;5161658;23;20181;-88
2024/03/02 03:53:45;;;;;;;27.42;12.15;;;;;;;5.94;97.24;96979.50;5162271;23;20706;-89
2024/03/02 03:55:49;;;;;;;33.25;12.30;;;;;;;5.96;97.48;96972.44;5134496;23;20667;-88
2024/03/02 03:57:53;;;;;;;24.90;11.90;;;;;;;5.96;97.44;96972.44;5134642;23;20184;-89
2024/03/02 03:59:56;;;;;;;28.48;12.85;;;;;;;5.97;97.56;96968.09;5162069;22;20183;-88
2024/03/02 04:02:00;;;;;;;32.40;13.00;;;;;;;5.98;97.33;96973.16;5135741;23;20198;-88
2024/03/02 04:04:03;;;;;;;30.90;13.45;;;;;;;5.96;97.92;96972.44;5163147;22;20254;-88
2024/03/02 04:06:06;;;;;;;33.83;13.88;;;;;;;5.97;97.70;96968.09;5134441;23;20202;-87
2024/03/02 04:08:11;;;;;;;31.02;12.85;;;;;;;5.97;98.32;96968.09;5134380;23;20223;-88
2024/03/02 04:10:13;;;;;;;51.75;13.80;;;;;;;5.97;98.37;96970.69;5136200;23;20181;-88
2024/03/02 04:12:17;;;;;;;26.38;12.15;;;;;;;5.99;97.76;96972.25;5159321;23;20180;-87
2024/03/02 04:14:20;;;;;;;35.38;11.75;;;;;;;5.97;97.99;96970.69;5135751;23;20180;-88
2024/03/02 04:16:24;;;;;;;29.73;13.63;;;;;;;5.97;98.08;96975.84;5160871;23;20221;-89
2024/03/02 04:18:28;;;;;;;39.30;13.32;;;;;;;5.95;98.16;96975.13;5134626;23;20860;-84
2024/03/02 04:20:32;;;;;;;29.58;12.95;;;;;;;5.90;96.90;96975.44;5161384;23;20232;-84
2024/03/02 04:22:37;;;;;;;23.00;13.00;;;;;;;5.85;97.20;96969.78;5163204;22;20491;-84
2024/03/02 04:24:40;;;;;;;31.77;12.40;;;;;;;5.87;97.18;96973.06;5160435;23;20172;-84
2024/03/02 04:26:43;;;;;;;19.65;12.10;;;;;;;5.89;97.17;96972.97;5160853;23;20532;-85
2024/03/02 04:28:46;;;;;;;18.40;13.18;;;;;;;5.89;97.67;96975.56;5161373;23;20229;-84
2024/03/02 04:30:49;;;;;;;21.48;11.90;;;;;;;5.92;97.12;96976.16;5161730;23;20191;-84
2024/03/02 04:32:53;;;;;;;18.50;12.07;;;;;;;5.93;97.79;96977.00;5135299;23;20239;-84
2024/03/02 04:34:58;;;;;;;20.60;12.90;;;;;;;5.96;97.89;96974.22;5162758;23;20284;-84
2024/03/02 04:37:01;;;;;;;16.05;11.82;;;;;;;5.99;97.84;96976.59;5136237;23;20254;-84
2024/03/02 04:39:05;;;;;;;17.83;12.02;;;;;;;6.01;97.83;96980.72;5135537;23;20223;-83
2024/03/02 04:41:09;;;;;;;21.38;12.75;;;;;;;6.03;97.80;96976.28;5161126;23;20203;-84
2024/03/02 04:43:16;;;;;;;21.75;12.43;;;;;;;6.05;98.03;96978.78;5137010;23;20807;-84
2024/03/02 04:45:19;;;;;;;18.25;12.25;;;;;;;6.06;97.44;96977.81;5162638;23;20174;-85
2024/03/02 04:47:22;;;;;;;19.73;12.40;;;;;;;6.05;97.38;96984.75;5163325;23;20186;-84
2024/03/02 04:49:26;;;;;;;28.98;13.60;;;;;;;6.04;97.06;96980.50;5137098;23;20199;-83
2024/03/02 04:51:30;;;;;;;23.17;12.80;;;;;;;6.03;96.80;96973.69;5138232;23;20180;-84
2024/03/02 04:53:34;;;;;;;21.73;12.77;;;;;;;6.04;96.88;96983.09;5162668;23;20267;-84
2024/03/02 04:57:55;;;;;;;20.60;12.13;;;;;;;6.02;96.73;96981.56;5159861;23;20179;-84
2024/03/02 04:59:59;;;;;;;27.92;14.10;;;;;;;6.02;97.21;96982.38;5140189;23;20175;-84
2024/03/02 05:02:03;;;;;;;22.20;11.77;;;;;;;6.02;97.34;96987.56;5167168;22;20181;-84
2024/03/02 05:04:06;;;;;;;25.98;12.85;;;;;;;6.04;96.99;96977.09;5165579;23;20202;-84
2024/03/02 05:06:09;;;;;;;29.40;12.52;;;;;;;6.01;96.84;96985.06;5139774;23;20674;-85
2024/03/02 05:08:16;;;;;;;29.13;12.50;;;;;;;5.99;96.89;96979.19;5140499;23;20204;-84
2024/03/02 05:10:19;;;;;;;32.25;12.27;;;;;;;5.98;97.00;96974.94;5140322;23;20185;-85
2024/03/02 05:12:40;;;;;;;28.98;12.80;;;;;;;5.96;97.14;96972.44;5164275;23;20175;-85
2024/03/02 05:14:43;;;;;;;28.38;12.93;;;;;;;5.97;97.43;96976.72;5134998;23;20204;-84
2024/03/02 05:16:46;;;;;;;45.10;12.73;;;;;;;5.98;97.72;96986.09;5161624;23;20202;-85
2024/03/02 05:18:49;;;;;;;40.45;13.05;;;;;;;5.97;97.87;96976.72;5162755;23;20186;-84
2024/03/02 05:20:52;;;;;;;33.90;12.75;;;;;;;5.98;97.20;96978.34;5164180;23;20183;-85
2024/03/02 05:22:56;;;;;;;31.25;12.05;;;;;;;5.95;97.16;96975.97;5162108;23;20176;-84
2024/03/02 05:25:00;;;;;;;40.97;12.60;;;;;;;5.97;97.38;96983.63;5161967;23;20213;-84
2024/03/02 05:27:06;;;;;;;37.58;12.70;;;;;;;5.95;97.44;96982.91;5137540;23;20198;-85
2024/03/02 05:29:09;;;;;;;30.38;10.90;;;;;;;5.96;97.19;96974.22;5136729;23;20236;-84
2024/03/02 05:31:11;;;;;;;38.85;11.50;;;;;;;5.91;96.75;96974.53;5137907;23;20633;-84
2024/03/02 05:33:14;;;;;;;25.13;11.10;;;;;;;5.89;96.81;96972.97;5138655;23;20199;-84
2024/03/02 05:35:16;;;;;;;28.60;11.43;;;;;;;5.89;97.13;96976.38;5162710;23;20183;-85
2024/03/02 05:37:20;;;;;;;18.90;10.63;;;;;;;5.88;96.77;96974.75;5162758;23;20192;-85
2024/03/02 05:39:23;;;;;;;23.40;11.65;;;;;;;5.87;96.97;96973.06;5161345;23;20217;-85
2024/03/02 05:41:26;;;;;;;24.17;11.45;;;;;;;5.87;96.70;96983.41;5137679;23;20209;-84
2024/03/02 05:43:30;;;;;;;15.48;9.90;;;;;;;5.84;96.37;96977.63;5163913;23;20203;-85
2024/03/02 05:45:33;;;;;;;16.52;10.25;;;;;;;5.84;96.20;96969.88;5161399;23;20181;-84
2024/03/02 05:47:36;;;;;;;18.25;10.75;;;;;;;5.83;96.17;96978.56;5137044;23;20279;-85
2024/03/02 05:49:39;;;;;;;20.65;11.82;;;;;;;5.80;96.28;96971.00;5135802;23;20631;-84
2024/03/02 05:51:43;;;;;;;17.63;11.05;;;;;;;5.79;96.60;96977.13;5137093;23;20222;-85
2024/03/02 05:53:46;;;;;;;17.27;11.70;;;;;;;5.82;96.64;96979.50;5163622;22;20177;-85
2024/03/02 05:55:53;;;;;;;18.38;11.30;;;;;;;5.81;96.77;96976.06;5161911;23;20506;-85
2024/03/02 05:58:15;;;;;;;17.35;11.52;;;;;;;5.79;96.33;96977.94;5163882;22;20580;-83
2024/03/02 06:00:18;;;;;;;23.42;14.27;;;;;;;5.78;96.14;96978.03;5136409;23;20631;-83
2024/03/02 06:02:22;;;;;;;17.50;11.38;;;;;;;5.77;96.60;96987.56;5137977;23;20178;-83
2024/03/02 06:04:25;;;;;;;19.83;12.57;;;;;;;5.78;95.99;96983.22;5162889;23;20619;-83
2024/03/02 06:06:28;;;;;;;21.92;14.00;;;;;;;5.77;96.21;96982.41;5160727;23;20543;-83
2024/03/02 06:08:32;;;;;;;25.40;14.95;;;;;;;5.77;96.18;96990.16;5162781;22;20188;-83
2024/03/02 06:10:36;;;;;;;19.63;12.43;;;;;;;5.79;95.95;96982.31;5137688;23;20243;-83
2024/03/02 06:12:39;;;;;;;16.92;11.23;;;;;;;5.80;96.14;96989.09;5163117;22;20179;-83
2024/03/02 06:14:44;;;;;;;20.10;11.73;;;;;;;5.80;96.18;96989.97;5162507;23;20175;-83
2024/03/02 06:16:47;;;;;;;18.35;11.70;;;;;;;5.81;96.33;96991.59;5160430;23;20197;-83
2024/03/02 06:18:51;;;;;;;15.95;10.45;;;;;;;5.82;96.07;96989.84;5163860;22;20176;-83
2024/03/02 06:20:54;;;;;;;14.50;10.65;;;;;;;5.82;95.64;96989.84;5163798;22;20176;-83
2024/03/02 06:22:57;;;;;;;18.13;11.48;;;;;;;5.81;95.63;96994.19;5137329;23;20206;-84
2024/03/02 06:25:00;;;;;;;18.52;11.05;;;;;;;5.82;95.92;96995.84;5138090;23;20181;-83
2024/03/02 06:27:05;;;;;;;16.23;11.55;;;;;;;5.83;96.25;96997.50;5162796;23;20175;-83
2024/03/02 06:29:08;;;;;;;16.50;10.48;;;;;;;5.85;96.32;97007.72;5138311;23;20251;-83
2024/03/02 06:31:13;;;;;;;18.85;11.95;;;;;;;5.88;95.76;97004.94;5137804;23;20624;-83
2024/03/02 06:33:16;;;;;;;16.42;10.13;;;;;;;5.85;95.19;97008.56;5137341;23;20199;-83
2024/03/02 06:35:20;;;;;;;19.58;10.80;;;;;;;5.83;95.58;97007.84;5163437;22;20173;-83
2024/03/02 06:37:23;;;;;;;18.45;10.48;;;;;;;5.84;95.46;97009.50;5135168;23;20196;-84
2024/03/02 06:39:27;;;;;;;22.52;11.35;;;;;;;5.85;95.21;97008.56;5136427;23;20184;-84
2024/03/02 06:41:30;;;;;;;26.92;10.40;;;;;;;5.88;95.67;97015.28;5136757;23;20184;-83
2024/03/02 06:43:34;;;;;;;15.32;10.23;;;;;;;5.88;96.22;97015.28;5161878;23;20310;-82
2024/03/02 06:45:37;;;;;;;16.42;10.65;;;;;;;5.90;96.45;97018.63;5160097;23;20205;-83
2024/03/02 06:47:42;;;;;;;16.00;10.18;;;;;;;5.90;96.30;97018.63;5161779;23;20173;-83
2024/03/02 06:49:45;;;;;;;17.45;10.50;;;;;;;5.92;96.53;97016.75;5161814;23;20188;-83
2024/03/02 06:51:49;;;;;;;16.00;10.88;;;;;;;5.90;96.41;97010.84;5161233;23;20557;-84
2024/03/02 06:53:53;;;;;;;16.85;9.90;;;;;;;5.92;96.42;97014.16;5161388;23;20264;-84
2024/03/02 06:55:57;;;;;;;43.50;27.38;;;;;;;5.95;96.37;97019.13;5135749;23;20174;-83
2024/03/02 06:58:00;;;;;;;22.90;14.35;;;;;;;5.95;96.57;97017.34;5164022;23;20197;-83
2024/03/02 07:00:08;;;;;;;17.48;11.25;;;;;;;5.98;96.75;97018.91;5163891;22;20188;-83
2024/03/02 07:02:11;;;;;;;15.52;10.05;;;;;;;6.01;96.21;97016.13;5136580;23;20203;-84
2024/03/02 07:04:16;;;;;;;16.52;10.68;;;;;;;6.03;96.41;97014.25;5161658;23;20212;-88
2024/03/02 07:06:19;;;;;;;14.98;9.85;;;;;;;6.07;96.82;97015.72;5136044;23;20204;-85
2024/03/02 07:08:23;;;;;;;15.95;10.20;;;;;;;6.10;96.79;97009.41;5160519;23;20228;-84
2024/03/02 07:10:26;;;;;;;17.02;11.25;;;;;;;6.14;96.53;97015.19;5163058;22;20215;-85
2024/03/02 07:12:29;;;;;;;15.10;10.65;;;;;;;6.17;96.52;97018.38;5137391;23;20213;-87
2024/03/02 07:17:03;;;;;;;12.68;9.70;;;;;;;6.20;95.62;97019.94;5108045;22;20197;-84
2024/03/02 07:19:06;;;;;;;18.13;10.63;;;;;;;6.21;96.04;97024.22;5162129;23;20657;-84
2024/03/02 07:21:11;;;;;;;18.65;12.25;;;;;;;6.25;96.50;97013.50;5137090;23;20205;-84
2024/03/02 07:23:14;;;;;;;19.75;12.65;;;;;;;6.30;96.80;97023.53;5161669;23;20180;-84
2024/03/02 07:25:18;;;;;;;17.77;11.88;;;;;;;6.35;97.03;97032.66;5163968;23;20175;-84
2024/03/02 07:27:24;;;;;;;17.48;11.05;;;;;;;6.40;97.00;97022.00;5135650;23;20170;-84
2024/03/02 07:29:26;;;;;;;21.75;13.43;;;;;;;6.44;97.34;97026.03;5161419;23;20661;-84
2024/03/02 07:31:29;;;;;;;24.65;12.70;;;;;;;6.47;97.31;97024.06;5136261;23;20179;-84
2024/03/02 07:33:33;;;;;;;25.83;13.73;;;;;;;6.52;97.09;97015.97;5162235;23;20205;-84
2024/03/02 07:35:36;;;;;;;22.33;12.80;;;;;;;6.56;97.31;97016.47;5161393;23;20237;-82
2024/03/02 07:37:41;;;;;;;19.75;12.57;;;;;;;6.63;97.21;97022.03;5136660;23;20194;-83
2024/03/02 07:39:45;;;;;;;16.90;11.98;;;;;;;6.68;97.01;97025.16;5161942;23;20204;-86
2024/03/02 07:41:48;;;;;;;18.67;11.90;;;;;;;6.76;97.99;97023.66;5159045;23;20227;-84
2024/03/02 07:43:51;;;;;;;17.90;11.70;;;;;;;6.89;98.53;97028.84;5135874;23;20239;-85
2024/03/02 07:45:55;;;;;;;18.30;11.70;;;;;;;7.06;97.55;97031.84;5161824;23;20215;-85
2024/03/02 07:47:58;;;;;;;18.95;12.57;;;;;;;7.28;98.52;97039.78;5137219;23;20173;-84
2024/03/02 07:50:02;;;;;;;18.85;13.32;;;;;;;7.45;96.94;97047.16;5162366;23;20370;-84
2024/03/02 07:52:05;;;;;;;17.65;12.02;;;;;;;7.56;96.90;97046.25;5137519;23;20181;-84
2024/03/02 07:54:10;;;;;;;16.40;12.18;;;;;;;7.70;95.81;97051.25;5161350;23;20174;-84
2024/03/02 07:56:13;;;;;;;18.73;11.85;;;;;;;7.87;96.63;97057.78;5136045;23;20251;-84
2024/03/02 07:58:18;;;;;;;18.13;12.40;;;;;;;7.96;95.89;97056.16;5161955;23;20956;-84
2024/03/02 08:00:22;;;;;;;18.08;12.15;;;;;;;8.06;96.63;97070.09;5137716;23;20180;-85
2024/03/02 08:02:26;;;;;;;19.92;13.15;;;;;;;8.18;96.16;97071.81;5136883;23;20184;-83
2024/03/02 08:04:29;;;;;;;16.65;12.50;;;;;;;8.31;95.80;97069.94;5159345;23;20546;-86
2024/03/02 08:06:32;;;;;;;18.55;12.48;;;;;;;8.47;95.86;97073.03;5159953;23;20221;-86
2024/03/02 08:08:35;;;;;;;18.45;11.88;;;;;;;8.59;95.79;97072.09;5161868;23;20576;-86
2024/03/02 08:10:40;;;;;;;18.65;10.77;;;;;;;8.65;95.19;97080.25;5136046;23;20177;-86
2024/03/02 08:12:44;;;;;;;18.80;12.57;;;;;;;8.80;96.23;97078.25;5159764;23;20212;-86
2024/03/02 08:14:47;;;;;;;18.73;11.75;;;;;;;8.89;96.33;97078.34;5161812;23;20177;-86
2024/03/02 08:16:50;;;;;;;18.88;12.27;;;;;;;8.96;96.00;97080.38;5162409;23;20173;-85
2024/03/02 08:18:53;;;;;;;17.15;11.70;;;;;;;9.01;95.22;97080.81;5162578;23;20208;-85
2024/03/02 08:20:56;;;;;;;19.17;12.27;;;;;;;9.05;96.10;97090.03;5163944;23;20181;-85
2024/03/02 08:22:59;;;;;;;16.20;10.98;;;;;;;9.12;95.38;97078.19;5138347;23;20573;-85
2024/03/02 08:25:02;;;;;;;17.75;12.20;;;;;;;9.16;95.58;97076.19;5138678;23;20707;-85
2024/03/02 08:27:07;;;;;;;20.15;13.80;;;;;;;9.20;95.38;97077.59;5163622;23;20173;-84
2024/03/02 08:29:10;;;;;;;18.40;12.37;;;;;;;9.19;94.75;97068.97;5162748;23;20180;-84
2024/03/02 08:31:13;;;;;;;20.23;12.93;;;;;;;9.19;96.54;97073.34;5163892;23;21214;-85
2024/03/02 08:33:16;;;;;;;19.03;13.30;;;;;;;9.24;96.09;97072.03;5164444;23;21213;-85
2024/03/02 08:35:22;;;;;;;20.17;12.98;;;;;;;9.31;97.25;97075.00;5163584;23;21262;-86
2024/03/02 08:37:26;;;;;;;16.40;11.90;;;;;;;9.33;96.51;97073.91;5136537;23;20178;-86
2024/03/02 08:39:29;;;;;;;18.42;11.63;;;;;;;9.35;96.72;97069.41;5189668;22;20624;-85
2024/03/02 08:41:33;;;;;;;17.38;12.43;;;;;;;9.37;96.32;97058.88;5163288;23;20209;-85
2024/03/02 08:43:37;;;;;;;16.87;11.80;;;;;;;9.41;96.47;97061.09;5163239;23;20215;-85
2024/03/02 08:45:41;;;;;;;19.95;14.15;;;;;;;9.48;95.83;97064.88;5187568;22;21323;-85
2024/03/02 08:47:44;;;;;;;17.60;12.77;;;;;;;9.51;95.37;97062.03;5165549;22;20177;-85
2024/03/02 08:49:48;;;;;;;17.17;11.32;;;;;;;9.57;95.67;97058.94;5164602;23;20261;-86
2024/03/02 08:51:54;;;;;;;18.52;13.35;;;;;;;9.65;95.19;97065.19;5138882;23;20184;-85
2024/03/02 08:53:58;;;;;;;17.50;11.00;;;;;;;9.72;95.78;97058.50;5164519;23;20272;-85
2024/03/02 08:56:02;;;;;;;15.53;10.80;;;;;;;9.78;94.98;97065.00;5163050;23;20588;-85
2024/03/02 08:58:06;;;;;;;10.87;8.00;;;;;;;9.89;91.71;97061.41;5138231;23;21183;-86
2024/03/02 09:00:12;;;;;;;13.73;10.00;;;;;;;10.01;92.31;97068.25;5163088;23;20583;-85
2024/03/02 09:02:15;;;;;;;13.00;9.52;;;;;;;10.12;93.41;97059.53;5136331;23;20651;-84
2024/03/02 09:04:19;;;;;;;15.30;10.20;;;;;;;10.20;94.85;97055.31;5162804;23;20182;-84
2024/03/02 09:06:24;;;;;;;15.38;10.10;;;;;;;10.23;93.03;97056.84;5162682;22;20194;-84
2024/03/02 09:08:27;;;;;;;15.65;10.45;;;;;;;10.30;93.09;97048.41;5158733;23;20281;-85
2024/03/02 09:10:31;;;;;;;14.10;10.05;;;;;;;10.39;92.83;97053.66;5131414;23;20225;-85
2024/03/02 09:12:34;;;;;;;13.10;10.40;;;;;;;10.48;92.20;97054.69;5162338;23;20174;-85
2024/03/02 09:14:39;;;;;;;9.95;7.57;;;;;;;10.58;92.03;97052.94;5161867;23;20645;-85
2024/03/02 09:16:44;;;;;;;9.90;7.30;;;;;;;10.67;92.19;97049.53;5163384;23;20651;-85
2024/03/02 09:18:47;;;;;;;14.50;10.60;;;;;;;10.75;92.87;97052.31;5163222;23;20608;-85
2024/03/02 09:20:51;;;;;;;16.93;12.17;;;;;;;10.85;93.75;97054.00;5138774;23;20608;-85
2024/03/02 09:22:53;;;;;;;18.47;13.27;;;;;;;10.87;93.10;97050.31;5137622;23;21148;-85
2024/03/02 09:24:56;;;;;;;16.90;12.20;;;;;;;10.92;91.07;97042.91;5163065;23;20612;-85
2024/03/02 09:27:00;;;;;;;18.87;13.33;;;;;;;11.00;91.76;97045.66;5138364;23;20580;-85
2024/03/02 09:29:04;;;;;;;17.90;12.93;;;;;;;11.12;92.18;97042.00;5162267;23;20564;-85
2024/03/02 09:31:07;;;;;;;17.27;12.27;;;;;;;11.30;93.45;97046.44;5138627;23;21093;-85
2024/03/02 09:33:11;;;;;;;18.80;12.90;;;;;;;11.54;92.91;97046.91;5137691;23;20581;-85
2024/03/02 09:35:18;;;;;;;17.37;12.47;;;;;;;11.91;93.84;97059.16;5163057;23;20580;-85
2024/03/02 09:37:21;;;;;;;16.77;12.83;;;;;;;12.21;93.82;97061.63;5164526;22;21099;-85
2024/03/02 09:39:25;;;;;;;15.30;12.60;;;;;;;12.48;92.55;97053.84;5163190;23;20608;-85